sensor_id;sensor_type;location;lat;lon;timestamp;P1;durP1;ratioP1;P2;durP2;ratioP2
54555;SDS011;57291;37.520;15.106;2023-12-14T00:01:18;14.13;;;5.07;;
54555;SDS011;57291;37.520;15.106;2023-12-14T00:03:45;13.73;;;5.53;;
54555;SDS011;57291;37.520;15.106;2023-12-14T00:06:13;9.25;;;4.78;;
54555;SDS011;57291;37.520;15.106;2023-12-14T00:08:41;12.23;;;4.88;;
54555;SDS011;57291;37.520;15.106;2023-12-14T00:11:10;11.02;;;4.57;;
54555;SDS011;57291;37.520;15.106;2023-12-14T00:13:38;8.02;;;4.22;;
54555;SDS011;57291;37.520;15.106;2023-12-14T00:16:06;11.50;;;5.22;;
54555;SDS011;57291;37.520;15.106;2023-12-14T00:18:35;13.05;;;4.63;;
54555;SDS011;57291;37.520;15.106;2023-12-14T00:21:03;12.77;;;5.00;;
54555;SDS011;57291;37.520;15.106;2023-12-14T00:23:33;14.00;;;5.60;;
54555;SDS011;57291;37.520;15.106;2023-12-14T00:26:01;14.43;;;5.72;;
54555;SDS011;57291;37.520;15.106;2023-12-14T00:28:28;11.38;;;5.25;;
54555;SDS011;57291;37.520;15.106;2023-12-14T00:30:59;9.65;;;4.32;;
54555;SDS011;57291;37.520;15.106;2023-12-14T00:33:27;10.73;;;5.32;;
54555;SDS011;57291;37.520;15.106;2023-12-14T00:35:55;9.23;;;4.35;;
54555;SDS011;57291;37.520;15.106;2023-12-14T00:38:22;11.20;;;4.90;;
54555;SDS011;57291;37.520;15.106;2023-12-14T00:40:49;9.25;;;5.30;;
54555;SDS011;57291;37.520;15.106;2023-12-14T00:43:17;13.30;;;4.95;;
54555;SDS011;57291;37.520;15.106;2023-12-14T00:45:44;12.88;;;4.63;;
54555;SDS011;57291;37.520;15.106;2023-12-14T00:48:12;9.98;;;4.72;;
54555;SDS011;57291;37.520;15.106;2023-12-14T00:50:40;9.95;;;4.45;;
54555;SDS011;57291;37.520;15.106;2023-12-14T00:53:07;10.05;;;3.97;;
54555;SDS011;57291;37.520;15.106;2023-12-14T00:55:34;9.98;;;4.22;;
54555;SDS011;57291;37.520;15.106;2023-12-14T00:58:02;11.07;;;4.38;;
54555;SDS011;57291;37.520;15.106;2023-12-14T01:00:29;9.85;;;4.32;;
54555;SDS011;57291;37.520;15.106;2023-12-14T01:02:58;12.10;;;4.30;;
54555;SDS011;57291;37.520;15.106;2023-12-14T01:05:25;13.55;;;4.65;;
54555;SDS011;57291;37.520;15.106;2023-12-14T01:07:53;7.88;;;4.03;;
54555;SDS011;57291;37.520;15.106;2023-12-14T01:10:20;10.23;;;4.30;;
54555;SDS011;57291;37.520;15.106;2023-12-14T01:12:47;12.80;;;4.65;;
54555;SDS011;57291;37.520;15.106;2023-12-14T01:15:14;9.10;;;4.30;;
54555;SDS011;57291;37.520;15.106;2023-12-14T01:17:42;10.18;;;4.32;;
54555;SDS011;57291;37.520;15.106;2023-12-14T01:20:10;11.00;;;4.20;;
54555;SDS011;57291;37.520;15.106;2023-12-14T01:22:37;12.93;;;4.70;;
54555;SDS011;57291;37.520;15.106;2023-12-14T01:25:05;11.13;;;4.40;;
54555;SDS011;57291;37.520;15.106;2023-12-14T01:27:33;7.32;;;4.00;;
54555;SDS011;57291;37.520;15.106;2023-12-14T01:30:00;9.32;;;4.28;;
54555;SDS011;57291;37.520;15.106;2023-12-14T01:32:27;11.50;;;4.70;;
54555;SDS011;57291;37.520;15.106;2023-12-14T01:34:55;13.30;;;4.28;;
54555;SDS011;57291;37.520;15.106;2023-12-14T01:37:22;11.90;;;4.45;;
54555;SDS011;57291;37.520;15.106;2023-12-14T01:39:50;11.88;;;4.50;;
54555;SDS011;57291;37.520;15.106;2023-12-14T01:42:17;13.02;;;4.10;;
54555;SDS011;57291;37.520;15.106;2023-12-14T01:44:44;9.35;;;4.38;;
54555;SDS011;57291;37.520;15.106;2023-12-14T01:47:12;11.07;;;4.22;;
54555;SDS011;57291;37.520;15.106;2023-12-14T01:49:39;14.32;;;4.88;;
54555;SDS011;57291;37.520;15.106;2023-12-14T01:52:08;11.52;;;3.70;;
54555;SDS011;57291;37.520;15.106;2023-12-14T01:54:35;10.93;;;4.15;;
54555;SDS011;57291;37.520;15.106;2023-12-14T01:57:03;11.43;;;4.03;;
54555;SDS011;57291;37.520;15.106;2023-12-14T01:59:30;10.57;;;3.72;;
54555;SDS011;57291;37.520;15.106;2023-12-14T02:01:58;10.65;;;3.75;;
54555;SDS011;57291;37.520;15.106;2023-12-14T02:04:26;9.43;;;3.58;;
54555;SDS011;57291;37.520;15.106;2023-12-14T02:06:53;7.50;;;3.58;;
54555;SDS011;57291;37.520;15.106;2023-12-14T02:09:21;10.80;;;3.78;;
54555;SDS011;57291;37.520;15.106;2023-12-14T02:11:48;8.48;;;4.03;;
54555;SDS011;57291;37.520;15.106;2023-12-14T02:14:16;11.48;;;3.55;;
54555;SDS011;57291;37.520;15.106;2023-12-14T02:16:43;8.50;;;3.60;;
54555;SDS011;57291;37.520;15.106;2023-12-14T02:19:10;9.20;;;3.58;;
54555;SDS011;57291;37.520;15.106;2023-12-14T02:21:38;8.10;;;3.65;;
54555;SDS011;57291;37.520;15.106;2023-12-14T02:24:05;8.80;;;4.15;;
54555;SDS011;57291;37.520;15.106;2023-12-14T02:26:33;11.02;;;4.35;;
54555;SDS011;57291;37.520;15.106;2023-12-14T02:29:00;10.13;;;3.78;;
54555;SDS011;57291;37.520;15.106;2023-12-14T02:31:27;8.60;;;4.20;;
54555;SDS011;57291;37.520;15.106;2023-12-14T02:33:55;11.65;;;4.60;;
54555;SDS011;57291;37.520;15.106;2023-12-14T02:36:22;8.15;;;4.60;;
54555;SDS011;57291;37.520;15.106;2023-12-14T02:38:49;11.45;;;4.35;;
54555;SDS011;57291;37.520;15.106;2023-12-14T02:41:17;10.98;;;4.43;;
54555;SDS011;57291;37.520;15.106;2023-12-14T02:43:44;11.20;;;4.80;;
54555;SDS011;57291;37.520;15.106;2023-12-14T02:46:12;11.98;;;4.53;;
54555;SDS011;57291;37.520;15.106;2023-12-14T02:48:42;10.10;;;4.38;;
54555;SDS011;57291;37.520;15.106;2023-12-14T02:51:13;13.90;;;5.00;;
54555;SDS011;57291;37.520;15.106;2023-12-14T02:53:44;10.25;;;5.45;;
54555;SDS011;57291;37.520;15.106;2023-12-14T02:56:11;13.38;;;6.47;;
54555;SDS011;57291;37.520;15.106;2023-12-14T02:58:39;12.27;;;4.70;;
54555;SDS011;57291;37.520;15.106;2023-12-14T03:01:06;8.80;;;3.90;;
54555;SDS011;57291;37.520;15.106;2023-12-14T03:03:34;10.38;;;3.42;;
54555;SDS011;57291;37.520;15.106;2023-12-14T03:06:04;6.65;;;3.53;;
54555;SDS011;57291;37.520;15.106;2023-12-14T03:08:32;6.38;;;3.20;;
54555;SDS011;57291;37.520;15.106;2023-12-14T03:10:59;10.13;;;3.67;;
54555;SDS011;57291;37.520;15.106;2023-12-14T03:13:27;6.78;;;3.38;;
54555;SDS011;57291;37.520;15.106;2023-12-14T03:15:55;8.07;;;3.60;;
54555;SDS011;57291;37.520;15.106;2023-12-14T03:18:22;5.40;;;3.20;;
54555;SDS011;57291;37.520;15.106;2023-12-14T03:20:50;7.32;;;3.17;;
54555;SDS011;57291;37.520;15.106;2023-12-14T03:23:17;7.78;;;3.13;;
54555;SDS011;57291;37.520;15.106;2023-12-14T03:25:45;6.68;;;2.90;;
54555;SDS011;57291;37.520;15.106;2023-12-14T03:28:12;7.57;;;3.00;;
54555;SDS011;57291;37.520;15.106;2023-12-14T03:30:39;7.45;;;3.25;;
54555;SDS011;57291;37.520;15.106;2023-12-14T03:33:07;11.52;;;3.85;;
54555;SDS011;57291;37.520;15.106;2023-12-14T03:35:35;8.20;;;3.85;;
54555;SDS011;57291;37.520;15.106;2023-12-14T03:38:03;5.78;;;3.10;;
54555;SDS011;57291;37.520;15.106;2023-12-14T03:40:30;6.93;;;3.53;;
54555;SDS011;57291;37.520;15.106;2023-12-14T03:42:57;7.25;;;3.03;;
54555;SDS011;57291;37.520;15.106;2023-12-14T03:45:25;6.00;;;3.30;;
54555;SDS011;57291;37.520;15.106;2023-12-14T03:47:52;5.47;;;2.97;;
54555;SDS011;57291;37.520;15.106;2023-12-14T03:50:20;5.28;;;3.08;;
54555;SDS011;57291;37.520;15.106;2023-12-14T03:52:47;11.00;;;3.42;;
54555;SDS011;57291;37.520;15.106;2023-12-14T03:55:14;7.13;;;3.33;;
54555;SDS011;57291;37.520;15.106;2023-12-14T03:57:42;8.05;;;3.33;;
54555;SDS011;57291;37.520;15.106;2023-12-14T04:00:09;8.55;;;3.33;;
54555;SDS011;57291;37.520;15.106;2023-12-14T04:02:38;8.70;;;3.30;;
54555;SDS011;57291;37.520;15.106;2023-12-14T04:05:08;6.35;;;3.30;;
54555;SDS011;57291;37.520;15.106;2023-12-14T04:07:37;7.93;;;3.05;;
54555;SDS011;57291;37.520;15.106;2023-12-14T04:10:08;6.10;;;3.45;;
54555;SDS011;57291;37.520;15.106;2023-12-14T04:12:36;8.35;;;3.45;;
54555;SDS011;57291;37.520;15.106;2023-12-14T04:15:04;5.88;;;2.88;;
54555;SDS011;57291;37.520;15.106;2023-12-14T04:17:33;9.32;;;3.70;;
54555;SDS011;57291;37.520;15.106;2023-12-14T04:20:01;8.50;;;3.53;;
54555;SDS011;57291;37.520;15.106;2023-12-14T04:22:33;8.18;;;3.42;;
54555;SDS011;57291;37.520;15.106;2023-12-14T04:25:01;7.10;;;2.83;;
54555;SDS011;57291;37.520;15.106;2023-12-14T04:27:29;6.60;;;3.17;;
54555;SDS011;57291;37.520;15.106;2023-12-14T04:29:57;5.30;;;2.70;;
54555;SDS011;57291;37.520;15.106;2023-12-14T04:32:24;7.70;;;2.95;;
54555;SDS011;57291;37.520;15.106;2023-12-14T04:34:51;7.50;;;2.75;;
54555;SDS011;57291;37.520;15.106;2023-12-14T04:37:19;4.97;;;2.60;;
54555;SDS011;57291;37.520;15.106;2023-12-14T04:39:46;8.35;;;2.95;;
54555;SDS011;57291;37.520;15.106;2023-12-14T04:42:13;10.20;;;3.40;;
54555;SDS011;57291;37.520;15.106;2023-12-14T04:44:41;7.78;;;2.63;;
54555;SDS011;57291;37.520;15.106;2023-12-14T04:47:08;5.47;;;2.10;;
54555;SDS011;57291;37.520;15.106;2023-12-14T04:49:35;4.95;;;2.58;;
54555;SDS011;57291;37.520;15.106;2023-12-14T04:52:03;6.35;;;2.60;;
54555;SDS011;57291;37.520;15.106;2023-12-14T04:54:31;5.47;;;2.53;;
54555;SDS011;57291;37.520;15.106;2023-12-14T04:56:58;6.03;;;2.50;;
54555;SDS011;57291;37.520;15.106;2023-12-14T04:59:26;4.78;;;2.50;;
54555;SDS011;57291;37.520;15.106;2023-12-14T05:01:53;6.22;;;2.45;;
54555;SDS011;57291;37.520;15.106;2023-12-14T05:04:20;6.60;;;2.72;;
54555;SDS011;57291;37.520;15.106;2023-12-14T05:06:48;6.90;;;2.28;;
54555;SDS011;57291;37.520;15.106;2023-12-14T05:09:15;5.18;;;2.05;;
54555;SDS011;57291;37.520;15.106;2023-12-14T05:11:43;5.25;;;2.55;;
54555;SDS011;57291;37.520;15.106;2023-12-14T05:14:10;9.73;;;2.67;;
54555;SDS011;57291;37.520;15.106;2023-12-14T05:16:37;7.07;;;2.45;;
54555;SDS011;57291;37.520;15.106;2023-12-14T05:19:06;8.73;;;4.35;;
54555;SDS011;57291;37.520;15.106;2023-12-14T05:21:33;9.45;;;3.60;;
54555;SDS011;57291;37.520;15.106;2023-12-14T05:24:01;6.38;;;2.70;;
54555;SDS011;57291;37.520;15.106;2023-12-14T05:26:28;7.75;;;2.72;;
54555;SDS011;57291;37.520;15.106;2023-12-14T05:28:55;6.97;;;2.65;;
54555;SDS011;57291;37.520;15.106;2023-12-14T05:31:23;8.18;;;3.40;;
54555;SDS011;57291;37.520;15.106;2023-12-14T05:33:50;9.27;;;3.40;;
54555;SDS011;57291;37.520;15.106;2023-12-14T05:36:18;11.27;;;3.67;;
54555;SDS011;57291;37.520;15.106;2023-12-14T05:38:46;7.97;;;3.50;;
54555;SDS011;57291;37.520;15.106;2023-12-14T05:41:13;7.00;;;3.05;;
54555;SDS011;57291;37.520;15.106;2023-12-14T05:43:40;7.65;;;3.05;;
54555;SDS011;57291;37.520;15.106;2023-12-14T05:46:08;6.75;;;3.17;;
54555;SDS011;57291;37.520;15.106;2023-12-14T05:48:36;5.68;;;2.72;;
54555;SDS011;57291;37.520;15.106;2023-12-14T05:51:04;5.22;;;2.83;;
54555;SDS011;57291;37.520;15.106;2023-12-14T05:53:32;6.88;;;2.70;;
54555;SDS011;57291;37.520;15.106;2023-12-14T05:56:03;8.80;;;3.40;;
54555;SDS011;57291;37.520;15.106;2023-12-14T05:58:32;7.88;;;3.60;;
54555;SDS011;57291;37.520;15.106;2023-12-14T06:01:00;6.95;;;2.42;;
54555;SDS011;57291;37.520;15.106;2023-12-14T06:03:27;5.40;;;2.65;;
54555;SDS011;57291;37.520;15.106;2023-12-14T06:05:54;6.43;;;2.78;;
54555;SDS011;57291;37.520;15.106;2023-12-14T06:08:22;6.50;;;2.85;;
54555;SDS011;57291;37.520;15.106;2023-12-14T06:10:49;7.53;;;3.40;;
54555;SDS011;57291;37.520;15.106;2023-12-14T06:13:16;5.32;;;2.88;;
54555;SDS011;57291;37.520;15.106;2023-12-14T06:15:44;6.93;;;2.90;;
54555;SDS011;57291;37.520;15.106;2023-12-14T06:18:11;8.48;;;2.92;;
54555;SDS011;57291;37.520;15.106;2023-12-14T06:20:39;8.77;;;2.85;;
54555;SDS011;57291;37.520;15.106;2023-12-14T06:23:07;7.05;;;2.80;;
54555;SDS011;57291;37.520;15.106;2023-12-14T06:25:34;8.27;;;3.50;;
54555;SDS011;57291;37.520;15.106;2023-12-14T06:28:02;8.88;;;3.17;;
54555;SDS011;57291;37.520;15.106;2023-12-14T06:30:30;7.07;;;3.40;;
54555;SDS011;57291;37.520;15.106;2023-12-14T06:32:57;7.53;;;3.33;;
54555;SDS011;57291;37.520;15.106;2023-12-14T06:35:25;7.60;;;3.00;;
54555;SDS011;57291;37.520;15.106;2023-12-14T06:37:52;7.20;;;3.75;;
54555;SDS011;57291;37.520;15.106;2023-12-14T06:40:19;7.05;;;3.45;;
54555;SDS011;57291;37.520;15.106;2023-12-14T06:42:46;8.95;;;4.03;;
54555;SDS011;57291;37.520;15.106;2023-12-14T06:45:15;10.07;;;4.25;;
54555;SDS011;57291;37.520;15.106;2023-12-14T06:47:42;12.23;;;4.60;;
54555;SDS011;57291;37.520;15.106;2023-12-14T06:50:11;8.57;;;4.13;;
54555;SDS011;57291;37.520;15.106;2023-12-14T06:52:40;10.35;;;4.22;;
54555;SDS011;57291;37.520;15.106;2023-12-14T06:55:07;9.32;;;4.75;;
54555;SDS011;57291;37.520;15.106;2023-12-14T06:57:36;19.13;;;4.97;;
54555;SDS011;57291;37.520;15.106;2023-12-14T07:00:03;11.57;;;4.55;;
54555;SDS011;57291;37.520;15.106;2023-12-14T07:02:32;16.00;;;5.38;;
54555;SDS011;57291;37.520;15.106;2023-12-14T07:05:00;7.97;;;4.00;;
54555;SDS011;57291;37.520;15.106;2023-12-14T07:07:27;8.43;;;4.20;;
54555;SDS011;57291;37.520;15.106;2023-12-14T07:09:55;9.25;;;3.60;;
54555;SDS011;57291;37.520;15.106;2023-12-14T07:12:22;7.88;;;3.65;;
54555;SDS011;57291;37.520;15.106;2023-12-14T07:14:49;9.63;;;3.58;;
54555;SDS011;57291;37.520;15.106;2023-12-14T07:17:17;8.98;;;3.60;;
54555;SDS011;57291;37.520;15.106;2023-12-14T07:19:44;13.68;;;4.32;;
54555;SDS011;57291;37.520;15.106;2023-12-14T07:22:12;8.52;;;4.50;;
54555;SDS011;57291;37.520;15.106;2023-12-14T07:24:39;11.40;;;4.75;;
54555;SDS011;57291;37.520;15.106;2023-12-14T07:27:18;16.23;;;5.55;;
54555;SDS011;57291;37.520;15.106;2023-12-14T07:29:45;17.15;;;5.88;;
54555;SDS011;57291;37.520;15.106;2023-12-14T07:32:13;19.92;;;5.20;;
54555;SDS011;57291;37.520;15.106;2023-12-14T07:34:41;11.70;;;4.90;;
54555;SDS011;57291;37.520;15.106;2023-12-14T07:37:08;12.52;;;5.50;;
54555;SDS011;57291;37.520;15.106;2023-12-14T07:39:35;11.05;;;4.40;;
54555;SDS011;57291;37.520;15.106;2023-12-14T07:42:03;12.55;;;4.25;;
54555;SDS011;57291;37.520;15.106;2023-12-14T07:44:31;15.07;;;4.20;;
54555;SDS011;57291;37.520;15.106;2023-12-14T07:47:01;8.27;;;3.67;;
54555;SDS011;57291;37.520;15.106;2023-12-14T07:49:29;7.63;;;2.67;;
54555;SDS011;57291;37.520;15.106;2023-12-14T07:51:56;4.45;;;2.47;;
54555;SDS011;57291;37.520;15.106;2023-12-14T07:54:24;8.52;;;2.80;;
54555;SDS011;57291;37.520;15.106;2023-12-14T07:56:53;5.60;;;2.67;;
54555;SDS011;57291;37.520;15.106;2023-12-14T07:59:21;12.48;;;3.40;;
54555;SDS011;57291;37.520;15.106;2023-12-14T08:01:49;5.80;;;2.22;;
54555;SDS011;57291;37.520;15.106;2023-12-14T08:04:16;7.03;;;3.03;;
54555;SDS011;57291;37.520;15.106;2023-12-14T08:06:43;8.13;;;2.67;;
54555;SDS011;57291;37.520;15.106;2023-12-14T08:09:11;13.63;;;3.75;;
54555;SDS011;57291;37.520;15.106;2023-12-14T08:11:38;11.73;;;3.42;;
54555;SDS011;57291;37.520;15.106;2023-12-14T08:14:06;11.63;;;4.68;;
54555;SDS011;57291;37.520;15.106;2023-12-14T08:16:33;10.30;;;4.68;;
54555;SDS011;57291;37.520;15.106;2023-12-14T08:19:01;10.18;;;4.47;;
54555;SDS011;57291;37.520;15.106;2023-12-14T08:21:28;10.65;;;4.82;;
54555;SDS011;57291;37.520;15.106;2023-12-14T08:23:56;14.82;;;6.57;;
54555;SDS011;57291;37.520;15.106;2023-12-14T08:26:23;14.90;;;7.05;;
54555;SDS011;57291;37.520;15.106;2023-12-14T08:28:50;17.23;;;7.88;;
54555;SDS011;57291;37.520;15.106;2023-12-14T08:31:17;17.60;;;7.90;;
54555;SDS011;57291;37.520;15.106;2023-12-14T08:33:45;17.58;;;7.55;;
54555;SDS011;57291;37.520;15.106;2023-12-14T08:36:16;12.93;;;6.20;;
54555;SDS011;57291;37.520;15.106;2023-12-14T08:38:46;15.15;;;5.38;;
54555;SDS011;57291;37.520;15.106;2023-12-14T08:41:13;11.73;;;5.35;;
54555;SDS011;57291;37.520;15.106;2023-12-14T08:43:42;9.98;;;4.57;;
54555;SDS011;57291;37.520;15.106;2023-12-14T08:46:10;8.55;;;3.67;;
54555;SDS011;57291;37.520;15.106;2023-12-14T08:48:37;9.50;;;3.80;;
54555;SDS011;57291;37.520;15.106;2023-12-14T08:51:05;7.95;;;4.43;;
54555;SDS011;57291;37.520;15.106;2023-12-14T08:53:32;9.23;;;4.60;;
54555;SDS011;57291;37.520;15.106;2023-12-14T08:56:00;11.30;;;5.30;;
54555;SDS011;57291;37.520;15.106;2023-12-14T08:58:27;12.00;;;6.43;;
54555;SDS011;57291;37.520;15.106;2023-12-14T09:00:55;17.35;;;6.85;;
54555;SDS011;57291;37.520;15.106;2023-12-14T09:03:23;10.23;;;5.50;;
54555;SDS011;57291;37.520;15.106;2023-12-14T09:05:50;13.02;;;5.88;;
54555;SDS011;57291;37.520;15.106;2023-12-14T09:08:18;10.65;;;5.38;;
54555;SDS011;57291;37.520;15.106;2023-12-14T09:10:45;9.20;;;4.65;;
54555;SDS011;57291;37.520;15.106;2023-12-14T09:13:13;11.48;;;4.72;;
54555;SDS011;57291;37.520;15.106;2023-12-14T09:15:40;9.50;;;3.80;;
54555;SDS011;57291;37.520;15.106;2023-12-14T09:18:08;9.65;;;3.95;;
54555;SDS011;57291;37.520;15.106;2023-12-14T09:20:35;5.82;;;3.00;;
54555;SDS011;57291;37.520;15.106;2023-12-14T09:23:04;8.90;;;2.97;;
54555;SDS011;57291;37.520;15.106;2023-12-14T09:25:31;6.72;;;2.55;;
54555;SDS011;57291;37.520;15.106;2023-12-14T09:28:00;7.80;;;2.90;;
54555;SDS011;57291;37.520;15.106;2023-12-14T09:30:27;9.60;;;2.83;;
54555;SDS011;57291;37.520;15.106;2023-12-14T09:32:55;8.60;;;2.63;;
54555;SDS011;57291;37.520;15.106;2023-12-14T09:35:22;4.30;;;2.63;;
54555;SDS011;57291;37.520;15.106;2023-12-14T09:37:50;9.10;;;3.42;;
54555;SDS011;57291;37.520;15.106;2023-12-14T09:40:17;5.45;;;3.13;;
54555;SDS011;57291;37.520;15.106;2023-12-14T09:42:45;11.55;;;2.97;;
54555;SDS011;57291;37.520;15.106;2023-12-14T09:45:13;7.28;;;3.10;;
54555;SDS011;57291;37.520;15.106;2023-12-14T09:47:44;7.43;;;3.33;;
54555;SDS011;57291;37.520;15.106;2023-12-14T09:50:13;9.02;;;3.22;;
54555;SDS011;57291;37.520;15.106;2023-12-14T09:52:42;7.72;;;3.60;;
54555;SDS011;57291;37.520;15.106;2023-12-14T09:55:12;9.68;;;3.92;;
54555;SDS011;57291;37.520;15.106;2023-12-14T09:57:40;9.13;;;3.83;;
54555;SDS011;57291;37.520;15.106;2023-12-14T10:00:07;6.57;;;3.15;;
54555;SDS011;57291;37.520;15.106;2023-12-14T10:02:38;7.13;;;3.38;;
54555;SDS011;57291;37.520;15.106;2023-12-14T10:05:07;11.82;;;3.40;;
54555;SDS011;57291;37.520;15.106;2023-12-14T10:07:43;14.87;;;3.90;;
54555;SDS011;57291;37.520;15.106;2023-12-14T10:10:11;7.72;;;3.60;;
54555;SDS011;57291;37.520;15.106;2023-12-14T10:12:50;11.48;;;3.55;;
54555;SDS011;57291;37.520;15.106;2023-12-14T10:15:19;8.25;;;3.28;;
54555;SDS011;57291;37.520;15.106;2023-12-14T10:17:54;13.32;;;3.28;;
54555;SDS011;57291;37.520;15.106;2023-12-14T10:20:23;10.85;;;4.28;;
54555;SDS011;57291;37.520;15.106;2023-12-14T10:22:50;12.77;;;4.50;;
54555;SDS011;57291;37.520;15.106;2023-12-14T10:25:18;11.40;;;3.72;;
54555;SDS011;57291;37.520;15.106;2023-12-14T10:27:47;11.77;;;4.47;;
54555;SDS011;57291;37.520;15.106;2023-12-14T10:30:15;11.80;;;4.05;;
54555;SDS011;57291;37.520;15.106;2023-12-14T10:32:42;10.38;;;4.28;;
54555;SDS011;57291;37.520;15.106;2023-12-14T10:35:10;11.70;;;4.20;;
54555;SDS011;57291;37.520;15.106;2023-12-14T10:37:39;12.63;;;4.03;;
54555;SDS011;57291;37.520;15.106;2023-12-14T10:40:07;12.32;;;4.63;;
54555;SDS011;57291;37.520;15.106;2023-12-14T10:42:37;11.13;;;4.57;;
54555;SDS011;57291;37.520;15.106;2023-12-14T10:45:12;10.90;;;4.00;;
54555;SDS011;57291;37.520;15.106;2023-12-14T10:47:47;10.40;;;3.78;;
54555;SDS011;57291;37.520;15.106;2023-12-14T10:50:16;13.23;;;4.53;;
54555;SDS011;57291;37.520;15.106;2023-12-14T10:52:45;11.13;;;4.00;;
54555;SDS011;57291;37.520;15.106;2023-12-14T10:55:23;10.98;;;3.58;;
54555;SDS011;57291;37.520;15.106;2023-12-14T10:57:59;9.32;;;3.53;;
54555;SDS011;57291;37.520;15.106;2023-12-14T11:00:28;9.85;;;3.30;;
54555;SDS011;57291;37.520;15.106;2023-12-14T11:02:56;10.70;;;3.30;;
54555;SDS011;57291;37.520;15.106;2023-12-14T11:05:24;8.73;;;3.60;;
54555;SDS011;57291;37.520;15.106;2023-12-14T11:08:01;11.88;;;4.15;;
54555;SDS011;57291;37.520;15.106;2023-12-14T11:10:41;12.07;;;3.67;;
54555;SDS011;57291;37.520;15.106;2023-12-14T11:13:11;13.15;;;3.50;;
54555;SDS011;57291;37.520;15.106;2023-12-14T11:15:48;8.68;;;3.53;;
54555;SDS011;57291;37.520;15.106;2023-12-14T11:23:12;11.57;;;3.40;;
54555;SDS011;57291;37.520;15.106;2023-12-14T11:25:47;9.65;;;3.17;;
54555;SDS011;57291;37.520;15.106;2023-12-14T11:28:24;9.55;;;3.30;;
54555;SDS011;57291;37.520;15.106;2023-12-14T11:30:54;8.48;;;3.42;;
54555;SDS011;57291;37.520;15.106;2023-12-14T11:33:23;10.68;;;3.53;;
54555;SDS011;57291;37.520;15.106;2023-12-14T11:35:51;11.90;;;3.63;;
54555;SDS011;57291;37.520;15.106;2023-12-14T11:38:20;12.80;;;3.72;;
54555;SDS011;57291;37.520;15.106;2023-12-14T11:40:48;9.90;;;4.18;;
54555;SDS011;57291;37.520;15.106;2023-12-14T11:43:17;11.00;;;3.75;;
54555;SDS011;57291;37.520;15.106;2023-12-14T11:45:48;8.32;;;3.85;;
54555;SDS011;57291;37.520;15.106;2023-12-14T11:48:16;9.77;;;3.83;;
54555;SDS011;57291;37.520;15.106;2023-12-14T11:50:45;9.98;;;3.97;;
54555;SDS011;57291;37.520;15.106;2023-12-14T11:53:13;8.95;;;3.40;;
54555;SDS011;57291;37.520;15.106;2023-12-14T11:55:41;12.45;;;3.67;;
54555;SDS011;57291;37.520;15.106;2023-12-14T11:58:13;13.13;;;3.42;;
54555;SDS011;57291;37.520;15.106;2023-12-14T12:00:42;8.43;;;3.33;;
54555;SDS011;57291;37.520;15.106;2023-12-14T12:05:50;7.07;;;2.72;;
54555;SDS011;57291;37.520;15.106;2023-12-14T12:08:19;8.10;;;3.60;;
54555;SDS011;57291;37.520;15.106;2023-12-14T12:10:48;6.43;;;2.95;;
54555;SDS011;57291;37.520;15.106;2023-12-14T12:13:19;12.13;;;3.20;;
54555;SDS011;57291;37.520;15.106;2023-12-14T12:15:48;9.40;;;2.92;;
54555;SDS011;57291;37.520;15.106;2023-12-14T12:18:16;9.25;;;3.08;;
54555;SDS011;57291;37.520;15.106;2023-12-14T12:20:44;6.68;;;2.42;;
54555;SDS011;57291;37.520;15.106;2023-12-14T12:23:12;9.05;;;2.53;;
54555;SDS011;57291;37.520;15.106;2023-12-14T12:25:39;6.80;;;2.90;;
54555;SDS011;57291;37.520;15.106;2023-12-14T12:28:07;12.15;;;3.25;;
54555;SDS011;57291;37.520;15.106;2023-12-14T12:30:34;7.65;;;2.58;;
54555;SDS011;57291;37.520;15.106;2023-12-14T12:33:07;7.25;;;2.83;;
54555;SDS011;57291;37.520;15.106;2023-12-14T12:35:34;7.93;;;2.78;;
54555;SDS011;57291;37.520;15.106;2023-12-14T12:38:01;11.57;;;2.88;;
54555;SDS011;57291;37.520;15.106;2023-12-14T12:40:30;8.25;;;2.67;;
54555;SDS011;57291;37.520;15.106;2023-12-14T12:43:00;6.80;;;2.70;;
54555;SDS011;57291;37.520;15.106;2023-12-14T12:45:28;10.30;;;3.80;;
54555;SDS011;57291;37.520;15.106;2023-12-14T12:48:04;8.50;;;3.20;;
54555;SDS011;57291;37.520;15.106;2023-12-14T12:50:37;7.83;;;2.90;;
54555;SDS011;57291;37.520;15.106;2023-12-14T12:53:04;6.75;;;3.08;;
54555;SDS011;57291;37.520;15.106;2023-12-14T12:55:32;12.48;;;3.15;;
54555;SDS011;57291;37.520;15.106;2023-12-14T12:57:59;11.13;;;3.05;;
54555;SDS011;57291;37.520;15.106;2023-12-14T13:00:31;10.77;;;3.20;;
54555;SDS011;57291;37.520;15.106;2023-12-14T13:03:02;11.98;;;2.80;;
54555;SDS011;57291;37.520;15.106;2023-12-14T13:05:29;12.38;;;2.67;;
54555;SDS011;57291;37.520;15.106;2023-12-14T13:07:57;12.68;;;2.88;;
54555;SDS011;57291;37.520;15.106;2023-12-14T13:10:25;11.10;;;2.70;;
54555;SDS011;57291;37.520;15.106;2023-12-14T13:12:58;11.63;;;3.30;;
54555;SDS011;57291;37.520;15.106;2023-12-14T13:15:26;16.02;;;6.68;;
54555;SDS011;57291;37.520;15.106;2023-12-14T13:17:56;14.38;;;3.42;;
54555;SDS011;57291;37.520;15.106;2023-12-14T13:20:24;11.38;;;3.13;;
54555;SDS011;57291;37.520;15.106;2023-12-14T13:22:52;20.58;;;4.20;;
54555;SDS011;57291;37.520;15.106;2023-12-14T13:25:20;13.85;;;3.63;;
54555;SDS011;57291;37.520;15.106;2023-12-14T13:27:50;15.40;;;3.63;;
54555;SDS011;57291;37.520;15.106;2023-12-14T13:30:17;11.93;;;3.22;;
54555;SDS011;57291;37.520;15.106;2023-12-14T13:32:46;16.55;;;3.22;;
54555;SDS011;57291;37.520;15.106;2023-12-14T13:35:13;14.35;;;3.08;;
54555;SDS011;57291;37.520;15.106;2023-12-14T13:37:41;9.98;;;3.15;;
54555;SDS011;57291;37.520;15.106;2023-12-14T13:40:09;14.60;;;3.40;;
54555;SDS011;57291;37.520;15.106;2023-12-14T13:42:40;15.07;;;4.03;;
54555;SDS011;57291;37.520;15.106;2023-12-14T13:45:25;16.55;;;3.60;;
54555;SDS011;57291;37.520;15.106;2023-12-14T13:47:56;20.08;;;4.50;;
54555;SDS011;57291;37.520;15.106;2023-12-14T13:50:25;15.32;;;3.92;;
54555;SDS011;57291;37.520;15.106;2023-12-14T13:52:55;15.57;;;3.72;;
54555;SDS011;57291;37.520;15.106;2023-12-14T13:55:23;18.50;;;3.47;;
54555;SDS011;57291;37.520;15.106;2023-12-14T13:57:50;18.08;;;3.78;;
54555;SDS011;57291;37.520;15.106;2023-12-14T14:00:18;20.65;;;4.30;;
54555;SDS011;57291;37.520;15.106;2023-12-14T14:02:46;18.48;;;4.38;;
54555;SDS011;57291;37.520;15.106;2023-12-14T14:05:13;13.85;;;3.28;;
54555;SDS011;57291;37.520;15.106;2023-12-14T14:07:41;17.70;;;3.85;;
54555;SDS011;57291;37.520;15.106;2023-12-14T14:10:08;12.73;;;3.40;;
54555;SDS011;57291;37.520;15.106;2023-12-14T14:12:36;16.00;;;3.90;;
54555;SDS011;57291;37.520;15.106;2023-12-14T14:15:05;11.95;;;2.80;;
54555;SDS011;57291;37.520;15.106;2023-12-14T14:17:33;9.38;;;3.15;;
54555;SDS011;57291;37.520;15.106;2023-12-14T14:20:01;13.10;;;3.13;;
54555;SDS011;57291;37.520;15.106;2023-12-14T14:22:28;14.35;;;3.70;;
54555;SDS011;57291;37.520;15.106;2023-12-14T14:24:56;11.38;;;2.92;;
54555;SDS011;57291;37.520;15.106;2023-12-14T14:27:23;12.80;;;3.45;;
54555;SDS011;57291;37.520;15.106;2023-12-14T14:29:51;15.85;;;2.88;;
54555;SDS011;57291;37.520;15.106;2023-12-14T14:32:22;14.38;;;3.35;;
54555;SDS011;57291;37.520;15.106;2023-12-14T14:34:49;16.42;;;4.38;;
54555;SDS011;57291;37.520;15.106;2023-12-14T14:37:17;12.70;;;3.78;;
54555;SDS011;57291;37.520;15.106;2023-12-14T14:39:45;14.55;;;3.50;;
54555;SDS011;57291;37.520;15.106;2023-12-14T14:42:12;15.00;;;4.10;;